TimeCDT,TemperatureF,Dew PointF,Humidity,Sea Level PressureIn,VisibilityMPH,Wind Direction,Wind SpeedMPH,Gust SpeedMPH,PrecipitationIn,Events,Conditions,WindDirDegrees,DateUTC
12:53 AM,37.9,26.1,62,30.14,10.0,Calm,Calm,-,N/A,,Overcast,0,2013-03-27 05:53:00
1:53 AM,36.0,27.0,70,30.12,10.0,ENE,9.2,-,N/A,,Overcast,70,2013-03-27 06:53:00
2:53 AM,35.1,27.0,72,30.09,10.0,East,10.4,-,N/A,,Mostly Cloudy,90,2013-03-27 07:53:00
3:53 AM,34.0,27.0,75,30.07,10.0,East,8.1,-,N/A,,Scattered Clouds,100,2013-03-27 08:53:00
4:53 AM,34.0,25.0,70,30.06,10.0,East,10.4,-,N/A,,Partly Cloudy,100,2013-03-27 09:53:00
5:53 AM,30.9,23.0,72,30.06,10.0,ESE,8.1,-,N/A,,Clear,110,2013-03-27 10:53:00
6:53 AM,30.9,23.0,72,30.07,10.0,ESE,8.1,-,N/A,,Clear,110,2013-03-27 11:53:00
7:53 AM,30.9,23.0,72,30.09,10.0,East,9.2,-,N/A,,Clear,100,2013-03-27 12:53:00
8:53 AM,34.0,24.1,67,30.11,10.0,ESE,11.5,-,N/A,,Clear,120,2013-03-27 13:53:00
9:53 AM,39.9,25.0,55,30.12,10.0,ESE,9.2,-,N/A,,Clear,120,2013-03-27 14:53:00
10:53 AM,43.0,25.0,49,30.12,10.0,SSE,5.8,-,N/A,,Clear,150,2013-03-27 15:53:00
11:53 AM,46.9,26.1,44,30.13,10.0,Variable,3.5,-,N/A,,Clear,0,2013-03-27 16:53:00
12:53 PM,51.1,26.1,38,30.12,10.0,NNE,8.1,-,N/A,,Clear,20,2013-03-27 17:53:00
1:53 PM,53.1,27.0,37,30.12,10.0,NE,9.2,-,N/A,,Clear,40,2013-03-27 18:53:00
2:53 PM,55.0,28.0,35,30.11,10.0,NE,5.8,23.0,N/A,,Clear,50,2013-03-27 19:53:00
3:53 PM,55.9,28.0,34,30.10,10.0,NE,6.9,-,N/A,,Clear,40,2013-03-27 20:53:00
4:53 PM,57.9,28.9,33,30.10,10.0,NNE,8.1,-,N/A,,Clear,20,2013-03-27 21:53:00
5:53 PM,57.9,28.0,32,30.11,10.0,ENE,5.8,-,N/A,,Clear,70,2013-03-27 22:53:00
6:53 PM,57.0,28.0,33,30.12,10.0,NE,5.8,-,N/A,,Clear,50,2013-03-27 23:53:00
7:53 PM,48.9,28.0,44,30.14,10.0,East,6.9,-,N/A,,Clear,80,2013-03-28 00:53:00
8:53 PM,43.0,28.9,58,30.17,10.0,ENE,6.9,-,N/A,,Clear,60,2013-03-28 01:53:00
9:53 PM,39.9,28.0,63,30.18,10.0,ENE,6.9,-,N/A,,Clear,70,2013-03-28 02:53:00
10:53 PM,35.1,28.0,76,30.20,10.0,Calm,Calm,-,N/A,,Clear,0,2013-03-28 03:53:00
11:53 PM,30.9,26.1,82,30.20,10.0,Calm,Calm,-,N/A,,Clear,0,2013-03-28 04:53:00